Time;durP1;ratioP1;P1;durP2;ratioP2;P2;SDS_P1;SDS_P2;PMS_P1;PMS_P2;Temp;Humidity;BMP_temperature;BMP_pressure;BME280_temperature;BME280_humidity;BME280_pressure;Samples;Min_cycle;Max_cycle;Signal;HPM_P1;HPM_P2
2022/09/18 00:00:55;;;;;;;6.13;1.73;;;;;;;;;;5055807;28;20044;-58
2022/09/18 00:03:21;;;;;;;8.02;1.52;;;9.50;99.90;;;;;;5056802;28;20036;-62
2022/09/18 00:05:48;;;;;;;9.18;1.77;;;9.60;99.90;;;;;;5056825;28;20084;-58
2022/09/18 00:08:17;;;;;;;9.18;1.80;;;9.70;99.90;;;;;;5056950;28;20054;-58
2022/09/18 00:10:45;;;;;;;10.05;1.95;;;9.70;99.90;;;;;;5056612;28;20053;-62
2022/09/18 00:13:13;;;;;;;7.53;1.52;;;9.80;99.90;;;;;;5056567;28;20052;-62
2022/09/18 00:15:41;;;;;;;10.95;1.73;;;9.60;99.90;;;;;;5056725;28;20049;-62
2022/09/18 00:18:07;;;;;;;13.48;1.60;;;9.90;99.90;;;;;;5056629;28;20468;-62
2022/09/18 00:20:36;;;;;;;5.28;1.70;;;9.70;99.90;;;;;;5056396;28;20129;-62
2022/09/18 00:23:02;;;;;;;13.95;1.95;;;;;;;;;;5055142;28;20068;-62
2022/09/18 00:25:30;;;;;;;5.97;1.80;;;9.90;99.90;;;;;;5056446;28;20052;-63
2022/09/18 00:27:58;;;;;;;7.03;1.80;;;;;;;;;;5056506;28;20087;-63
2022/09/18 00:30:24;;;;;;;12.48;1.80;;;;;;;;;;5056270;28;20140;-62
2022/09/18 00:32:50;;;;;;;10.80;1.95;;;;;;;;;;5056216;28;20156;-63
2022/09/18 00:35:16;;;;;;;11.25;1.70;;;9.20;99.90;;;;;;5056114;28;20068;-63
2022/09/18 00:37:42;;;;;;;15.32;1.95;;;10.10;99.90;;;;;;5056255;28;20045;-63
2022/09/18 00:40:09;;;;;;;7.03;1.50;;;9.80;99.90;;;;;;5056167;28;20045;-63
2022/09/18 00:42:39;;;;;;;13.00;2.33;;;9.80;99.90;;;;;;5056025;28;20037;-62
2022/09/18 00:45:05;;;;;;;10.88;1.70;;;10.30;99.90;;;;;;5056103;28;20040;-63
2022/09/18 00:47:44;;;;;;;10.55;1.98;;;9.80;99.90;;;;;;5055934;28;20041;-62
2022/09/18 00:50:22;;;;;;;6.68;1.60;;;9.80;99.90;;;;;;5056101;28;20048;-62
2022/09/18 00:52:56;;;;;;;15.85;2.20;;;9.80;99.90;;;;;;5055864;28;20485;-62
2022/09/18 00:55:26;;;;;;;10.52;1.80;;;10.10;99.90;;;;;;5056099;28;20087;-63
2022/09/18 00:57:57;;;;;;;10.15;1.92;;;9.90;99.90;;;;;;5056048;28;20044;-62
2022/09/18 01:00:25;;;;;;;10.75;1.85;;;9.80;99.90;;;;;;5055862;28;20084;-63
2022/09/18 01:02:51;;;;;;;9.45;1.90;;;10.00;99.90;;;;;;5055724;28;20471;-62
2022/09/18 01:05:30;;;;;;;10.98;1.73;;;9.40;99.90;;;;;;5054679;28;20072;-63
2022/09/18 01:08:08;;;;;;;11.90;2.10;;;10.10;99.90;;;;;;5055583;28;20072;-63
2022/09/18 01:10:47;;;;;;;12.95;2.33;;;9.70;99.90;;;;;;5055475;28;20089;-63
2022/09/18 01:13:14;;;;;;;12.90;2.00;;;;;;;;;;5055742;28;20045;-62
2022/09/18 01:15:51;;;;;;;11.48;1.85;;;9.70;99.90;;;;;;5055520;28;20037;-63
2022/09/18 01:18:38;;;;;;;10.55;2.13;;;10.20;99.90;;;;;;5055290;28;20037;-62
2022/09/18 01:21:08;;;;;;;12.80;1.98;;;10.10;99.90;;;;;;5055230;28;20045;-62
2022/09/18 01:23:53;;;;;;;12.73;2.10;;;10.20;99.90;;;;;;5055213;28;20052;-62
2022/09/18 01:26:37;;;;;;;19.17;2.35;;;10.40;99.90;;;;;;5055320;28;20041;-62
2022/09/18 01:29:29;;;;;;;9.02;2.35;;;9.60;99.90;;;;;;5055042;28;20041;-62
2022/09/18 01:32:02;;;;;;;11.02;1.92;;;10.40;99.90;;;;;;5055131;28;20506;-62
2022/09/18 01:34:31;;;;;;;16.63;2.83;;;10.10;99.90;;;;;;5055097;28;20045;-62
2022/09/18 01:37:12;;;;;;;18.90;2.03;;;9.90;99.90;;;;;;5054957;28;20107;-62
2022/09/18 01:39:45;;;;;;;11.88;2.15;;;10.20;99.90;;;;;;5054908;28;20068;-63
2022/09/18 01:42:16;;;;;;;14.40;1.95;;;10.40;99.90;;;;;;5055164;28;20047;-63
2022/09/18 01:44:43;;;;;;;12.48;1.90;;;10.20;99.90;;;;;;5055206;28;20052;-63
2022/09/18 01:47:12;;;;;;;10.45;2.00;;;10.30;99.90;;;;;;5054951;28;20110;-62
2022/09/18 01:49:43;;;;;;;7.30;1.83;;;10.30;99.90;;;;;;5054780;28;20049;-62
2022/09/18 01:52:11;;;;;;;9.35;1.92;;;10.50;99.90;;;;;;5054649;28;20047;-63
2022/09/18 01:54:40;;;;;;;17.38;2.00;;;10.20;99.90;;;;;;5054547;28;20041;-63
2022/09/18 01:57:17;;;;;;;10.27;1.80;;;10.40;99.90;;;;;;5071182;28;20041;-63
2022/09/18 01:59:48;;;;;;;15.38;2.00;;;10.60;99.90;;;;;;5074868;28;20044;-63
2022/09/18 02:02:24;;;;;;;11.85;1.90;;;10.50;99.90;;;;;;5074823;28;20043;-63
2022/09/18 02:04:53;;;;;;;12.93;2.28;;;10.50;99.90;;;;;;5074418;28;20037;-64
2022/09/18 02:07:27;;;;;;;9.95;2.00;;;10.40;99.90;;;;;;5074573;28;20111;-64
2022/09/18 02:09:54;;;;;;;12.05;2.45;;;;;;;;;;5074229;28;20484;-62
2022/09/18 02:12:23;;;;;;;13.15;1.98;;;10.00;99.90;;;;;;5074626;28;20044;-64
2022/09/18 02:14:57;;;;;;;14.57;2.30;;;10.60;99.90;;;;;;5074418;28;20044;-63
2022/09/18 02:17:33;;;;;;;12.52;2.30;;;10.40;99.90;;;;;;5074696;28;20078;-63
2022/09/18 02:20:05;;;;;;;15.77;2.60;;;10.10;99.90;;;;;;5073918;28;20055;-63
2022/09/18 02:22:33;;;;;;;10.65;1.70;;;10.60;99.90;;;;;;5074413;28;20032;-63
2022/09/18 02:25:03;;;;;;;8.95;1.80;;;10.40;99.90;;;;;;5074053;28;20045;-63
2022/09/18 02:27:31;;;;;;;11.38;2.25;;;10.60;99.90;;;;;;5073903;28;20036;-63
2022/09/18 02:30:01;;;;;;;15.00;2.20;;;10.30;99.90;;;;;;5074142;28;20099;-63
2022/09/18 02:32:27;;;;;;;19.25;2.17;;;;;;;;;;5071550;28;20054;-63
2022/09/18 02:34:54;;;;;;;10.45;1.80;;;10.60;99.90;;;;;;5073812;28;20037;-63
2022/09/18 02:37:39;;;;;;;16.08;2.10;;;10.40;99.90;;;;;;5074080;28;20037;-63
2022/09/18 02:40:17;;;;;;;12.90;2.17;;;10.50;99.90;;;;;;5073682;28;20040;-63
2022/09/18 02:43:20;;;;;;;11.70;1.98;;;10.70;99.90;;;;;;5072469;28;20036;-63
2022/09/18 02:46:27;;;;;;;11.98;2.10;;;10.60;99.90;;;;;;5071541;28;20059;-63
2022/09/18 02:49:03;;;;;;;12.98;1.90;;;10.70;99.90;;;;;;5012127;28;20046;-58
2022/09/18 02:51:45;;;;;;;16.85;2.88;;;10.50;99.90;;;;;;4995501;28;20057;-58
2022/09/18 02:54:18;;;;;;;12.10;1.77;;;10.60;99.90;;;;;;5011845;28;20410;-57
2022/09/18 02:56:55;;;;;;;11.63;1.85;;;10.40;99.90;;;;;;5011753;28;20049;-58
2022/09/18 02:59:30;;;;;;;8.60;2.10;;;10.60;99.90;;;;;;5011680;28;20061;-58
2022/09/18 03:02:00;;;;;;;11.40;2.00;;;10.50;99.90;;;;;;5011730;28;20122;-58
2022/09/18 03:04:27;;;;;;;8.07;1.90;;;10.70;99.90;;;;;;5011777;28;20041;-58
2022/09/18 03:06:53;;;;;;;10.95;2.20;;;11.00;99.90;;;;;;5011637;28;20391;-57
2022/09/18 03:09:19;;;;;;;11.98;2.30;;;10.60;99.90;;;;;;5011453;28;20076;-58
2022/09/18 03:11:48;;;;;;;9.50;1.73;;;10.60;99.90;;;;;;5011428;28;20107;-58
2022/09/18 03:14:18;;;;;;;10.20;1.75;;;11.10;99.90;;;;;;5011544;28;20094;-57
2022/09/18 03:16:45;;;;;;;12.68;2.03;;;10.80;99.90;;;;;;5011514;28;20077;-58
2022/09/18 03:19:13;;;;;;;8.07;2.58;;;10.60;99.90;;;;;;5032342;28;20059;-58
2022/09/18 03:21:40;;;;;;;13.20;2.13;;;10.70;99.90;;;;;;5073410;28;20404;-58
2022/09/18 03:24:06;;;;;;;11.02;2.20;;;10.30;99.90;;;;;;5073131;28;20036;-58
2022/09/18 03:26:32;;;;;;;10.32;1.70;;;10.90;99.90;;;;;;5073145;28;20181;-58
2022/09/18 03:28:57;;;;;;;12.15;2.20;;;10.40;99.90;;;;;;5073495;28;20076;-58
2022/09/18 03:31:23;;;;;;;11.15;1.85;;;11.20;99.90;;;;;;5072684;28;20032;-58
2022/09/18 03:33:49;;;;;;;15.15;1.88;;;10.90;99.90;;;;;;5072912;28;20147;-58
2022/09/18 03:36:18;;;;;;;15.45;4.25;;;10.70;99.90;;;;;;5072535;28;20051;-58
2022/09/18 03:38:44;;;;;;;7.93;1.88;;;10.70;99.90;;;;;;5073120;28;20041;-57
2022/09/18 03:41:11;;;;;;;7.40;1.75;;;10.80;99.90;;;;;;5073277;28;20028;-58
2022/09/18 03:43:40;;;;;;;13.15;1.88;;;10.90;99.90;;;;;;5073131;28;20040;-57
2022/09/18 03:46:06;;;;;;;11.80;1.85;;;10.70;99.90;;;;;;5073155;28;20338;-58
2022/09/18 03:48:32;;;;;;;9.57;1.98;;;10.80;99.90;;;;;;5073041;28;20396;-57
2022/09/18 03:50:59;;;;;;;10.18;2.03;;;10.70;99.90;;;;;;5072758;28;20123;-57
2022/09/18 03:53:25;;;;;;;10.02;1.83;;;10.90;99.90;;;;;;5073201;28;20392;-58
2022/09/18 03:55:51;;;;;;;12.68;1.88;;;10.70;99.90;;;;;;5073155;28;20044;-58
2022/09/18 03:58:18;;;;;;;12.60;1.80;;;;;;;;;;5072334;28;20106;-58
2022/09/18 04:00:44;;;;;;;10.35;1.73;;;10.80;99.90;;;;;;5073299;28;20041;-58
2022/09/18 04:03:13;;;;;;;9.35;1.88;;;11.00;99.90;;;;;;5072758;28;20072;-58
2022/09/18 04:05:39;;;;;;;11.70;1.98;;;;;;;;;;5072517;28;20036;-58
2022/09/18 04:08:05;;;;;;;9.85;1.88;;;;;;;;;;5073051;28;20063;-58
2022/09/18 04:10:32;;;;;;;6.82;1.80;;;10.90;99.90;;;;;;5072695;28;20057;-63
2022/09/18 04:12:58;;;;;;;5.28;1.40;;;10.90;99.90;;;;;;5071920;28;20045;-58
2022/09/18 04:15:24;;;;;;;11.70;1.80;;;;;;;;;;5073144;28;20082;-63
2022/09/18 04:17:49;;;;;;;10.82;2.05;;;10.90;99.90;;;;;;5073090;28;20086;-63
2022/09/18 04:20:15;;;;;;;9.02;1.73;;;10.80;99.90;;;;;;5072787;28;20044;-63
2022/09/18 04:22:40;;;;;;;8.68;2.00;;;10.90;99.90;;;;;;5072560;28;20037;-63
2022/09/18 04:25:06;;;;;;;7.10;1.38;;;11.00;99.90;;;;;;5072706;28;20036;-63
2022/09/18 04:27:33;;;;;;;12.40;1.80;;;10.90;99.90;;;;;;5072644;28;20472;-63
2022/09/18 04:29:59;;;;;;;10.40;1.92;;;;;;;;;;5072566;28;20044;-63
2022/09/18 04:32:25;;;;;;;9.25;2.10;;;10.80;99.90;;;;;;5072579;28;20110;-63
2022/09/18 04:34:51;;;;;;;7.95;1.83;;;10.90;99.90;;;;;;5072318;28;20484;-63
2022/09/18 04:37:17;;;;;;;10.25;1.42;;;;;;;;;;5071151;28;20053;-63
2022/09/18 04:39:43;;;;;;;9.10;1.67;;;10.80;99.90;;;;;;5072399;28;20045;-63
2022/09/18 04:42:08;;;;;;;10.55;2.25;;;10.40;99.90;;;;;;5072333;28;20049;-58
2022/09/18 04:44:37;;;;;;;8.05;1.73;;;10.30;99.90;;;;;;5075531;28;20127;-58
2022/09/18 04:47:06;;;;;;;8.70;1.55;;;10.80;99.90;;;;;;5075039;28;20154;-58
2022/09/18 04:49:33;;;;;;;16.98;1.67;;;10.80;99.90;;;;;;5076053;28;20072;-58
2022/09/18 04:52:03;;;;;;;8.57;1.75;;;11.20;99.90;;;;;;5075811;28;20048;-58
2022/09/18 04:54:28;;;;;;;8.95;1.63;;;10.70;99.90;;;;;;5075915;28;20055;-58
2022/09/18 04:56:54;;;;;;;10.23;1.73;;;10.70;99.90;;;;;;5075909;28;20044;-58
2022/09/18 04:59:20;;;;;;;7.60;1.77;;;10.80;99.90;;;;;;5075700;28;20488;-58
2022/09/18 05:01:47;;;;;;;5.47;1.38;;;10.80;99.90;;;;;;5075606;28;20029;-58
2022/09/18 05:04:13;;;;;;;9.48;1.75;;;10.80;99.90;;;;;;5075927;28;20040;-58
2022/09/18 05:06:39;;;;;;;9.90;1.60;;;10.60;99.90;;;;;;5075943;28;20421;-57
2022/09/18 05:09:05;;;;;;;13.82;2.03;;;10.70;99.90;;;;;;5074390;28;20449;-58
2022/09/18 05:11:31;;;;;;;7.97;1.63;;;;;;;;;;5075512;28;20063;-58
2022/09/18 05:13:57;;;;;;;13.00;1.90;;;10.90;99.90;;;;;;5075650;28;20048;-58
2022/09/18 05:16:23;;;;;;;8.15;1.70;;;10.90;99.90;;;;;;5075359;28;20032;-58
2022/09/18 05:18:50;;;;;;;13.05;1.85;;;10.90;99.90;;;;;;5075324;28;20080;-58
2022/09/18 05:21:18;;;;;;;10.63;1.60;;;11.10;99.90;;;;;;5075686;28;20137;-58
2022/09/18 05:23:45;;;;;;;8.18;1.70;;;;;;;;;;5075722;28;20044;-58
2022/09/18 05:26:12;;;;;;;9.00;1.77;;;10.50;99.90;;;;;;5075213;28;20458;-58
2022/09/18 05:28:38;;;;;;;14.80;1.85;;;10.90;99.90;;;;;;5075202;28;20041;-58
2022/09/18 05:31:04;;;;;;;10.13;1.67;;;10.80;99.90;;;;;;5074124;28;20044;-57
2022/09/18 05:33:30;;;;;;;8.02;1.77;;;10.90;99.90;;;;;;5075150;28;20041;-57
2022/09/18 05:35:57;;;;;;;13.93;2.65;;;11.00;99.90;;;;;;5075250;28;20109;-58
2022/09/18 05:38:25;;;;;;;10.55;1.95;;;10.90;99.90;;;;;;5075294;28;20087;-57
2022/09/18 05:40:53;;;;;;;9.52;1.60;;;11.00;99.90;;;;;;5074996;28;20051;-58
2022/09/18 05:43:18;;;;;;;7.78;1.63;;;11.00;99.90;;;;;;5075339;28;20167;-58
2022/09/18 05:45:45;;;;;;;8.10;1.63;;;;;;;;;;5074734;28;20044;-57
2022/09/18 05:48:14;;;;;;;9.48;1.65;;;11.20;99.90;;;;;;5075206;28;20044;-57
2022/09/18 05:50:41;;;;;;;11.35;1.77;;;11.00;99.90;;;;;;5074634;28;20051;-58
2022/09/18 05:53:11;;;;;;;12.43;2.45;;;10.90;99.90;;;;;;5073888;28;20123;-57
2022/09/18 05:55:37;;;;;;;14.35;2.17;;;10.90;99.90;;;;;;5073727;28;20087;-57
2022/09/18 05:58:05;;;;;;;8.20;1.40;;;11.00;99.90;;;;;;5074586;28;20048;-57
2022/09/18 06:00:35;;;;;;;6.47;1.48;;;10.90;99.90;;;;;;5074514;28;20056;-58
2022/09/18 06:03:07;;;;;;;7.65;1.73;;;11.00;99.90;;;;;;5073376;28;20052;-57
2022/09/18 06:05:36;;;;;;;11.32;1.98;;;11.20;99.90;;;;;;5073517;28;20404;-58
2022/09/18 06:08:07;;;;;;;6.25;1.20;;;11.00;99.90;;;;;;5074522;28;20036;-58
2022/09/18 06:10:38;;;;;;;6.57;1.70;;;11.10;99.90;;;;;;5074057;28;20052;-57
2022/09/18 06:13:12;;;;;;;9.20;1.50;;;10.50;99.90;;;;;;5074187;28;20133;-57
2022/09/18 06:15:42;;;;;;;5.28;1.60;;;11.00;99.90;;;;;;5074213;28;20094;-57
2022/09/18 06:18:15;;;;;;;6.07;1.67;;;11.10;99.90;;;;;;5074622;28;20036;-57
2022/09/18 06:20:52;;;;;;;6.18;1.55;;;12.10;99.90;;;;;;5074195;28;20099;-57
2022/09/18 06:23:25;;;;;;;9.75;1.70;;;11.00;99.90;;;;;;5074297;28;20028;-57
2022/09/18 06:26:03;;;;;;;5.78;1.90;;;11.00;99.90;;;;;;5073943;28;20115;-57
2022/09/18 06:28:33;;;;;;;7.18;1.52;;;11.10;99.90;;;;;;5073951;28;20131;-56
2022/09/18 06:31:01;;;;;;;8.60;1.70;;;11.10;99.90;;;;;;5073912;28;20369;-57
2022/09/18 06:33:31;;;;;;;6.45;1.38;;;10.90;99.90;;;;;;5074011;28;20036;-57
2022/09/18 06:35:57;;;;;;;7.97;1.70;;;;;;;;;;5056589;28;20044;-57
2022/09/18 06:38:24;;;;;;;7.72;1.60;;;10.90;99.90;;;;;;5073918;28;20043;-57
2022/09/18 06:40:51;;;;;;;5.82;1.40;;;10.90;99.90;;;;;;5074016;28;20036;-57
2022/09/18 06:43:18;;;;;;;9.30;1.60;;;10.90;99.90;;;;;;5074212;28;20032;-57
2022/09/18 06:45:50;;;;;;;6.47;1.70;;;11.20;99.90;;;;;;5072362;28;20365;-57
2022/09/18 06:48:17;;;;;;;6.72;1.77;;;11.20;99.90;;;;;;5073950;28;20036;-57
2022/09/18 06:50:43;;;;;;;9.95;1.92;;;11.20;99.90;;;;;;5073956;28;20051;-57
2022/09/18 06:53:09;;;;;;;10.23;1.73;;;;;;;;;;5073562;28;20494;-58
2022/09/18 06:55:35;;;;;;;6.82;1.65;;;11.10;99.90;;;;;;5073615;28;20047;-57
2022/09/18 06:58:01;;;;;;;6.03;1.60;;;11.10;99.90;;;;;;5074030;28;20075;-56
2022/09/18 07:00:27;;;;;;;5.90;1.67;;;11.10;99.90;;;;;;5073346;28;20477;-57
2022/09/18 07:02:57;;;;;;;7.60;1.60;;;11.10;99.90;;;;;;5073618;28;20067;-58
2022/09/18 07:05:26;;;;;;;6.90;1.60;;;11.30;99.90;;;;;;5073610;28;20103;-57
2022/09/18 07:07:51;;;;;;;5.85;1.70;;;11.20;99.90;;;;;;5073175;28;20033;-57
2022/09/18 07:10:19;;;;;;;6.50;1.50;;;11.40;99.90;;;;;;5073233;28;20063;-57
2022/09/18 07:12:47;;;;;;;5.60;1.58;;;11.20;99.90;;;;;;5072954;28;20131;-57
2022/09/18 07:15:18;;;;;;;8.02;1.50;;;11.20;99.90;;;;;;5073016;28;20048;-57
2022/09/18 07:17:44;;;;;;;10.73;1.90;;;;;;;;;;5073548;28;20150;-64
2022/09/18 07:20:13;;;;;;;7.30;1.42;;;11.40;99.90;;;;;;5073096;28;20048;-64
2022/09/18 07:22:40;;;;;;;5.68;1.67;;;11.20;99.90;;;;;;5073674;28;20037;-63
2022/09/18 07:25:09;;;;;;;4.15;1.38;;;11.00;99.90;;;;;;5073476;28;20046;-64
2022/09/18 07:27:39;;;;;;;8.45;1.90;;;11.20;99.90;;;;;;5073121;28;20421;-64
2022/09/18 07:30:05;;;;;;;12.05;1.65;;;11.30;99.90;;;;;;5073149;28;20396;-63
2022/09/18 07:32:31;;;;;;;8.70;1.80;;;11.30;99.90;;;;;;5073269;28;20115;-63
2022/09/18 07:34:56;;;;;;;5.28;1.42;;;11.10;99.90;;;;;;5072366;28;20540;-57
2022/09/18 07:37:22;;;;;;;7.00;1.40;;;10.80;99.90;;;;;;5051876;28;20044;-57
2022/09/18 07:39:48;;;;;;;6.53;1.50;;;11.30;99.90;;;;;;5071925;28;20124;-57
2022/09/18 07:42:14;;;;;;;9.85;1.70;;;11.30;99.90;;;;;;5058351;28;20119;-57
2022/09/18 07:44:41;;;;;;;5.80;1.33;;;11.20;99.90;;;;;;5071196;28;20055;-57
2022/09/18 07:47:07;;;;;;;8.55;1.50;;;11.40;99.90;;;;;;5071911;28;20048;-57
2022/09/18 07:49:33;;;;;;;7.15;1.90;;;11.40;99.90;;;;;;5071593;28;20052;-57
2022/09/18 07:52:00;;;;;;;8.02;1.90;;;11.40;99.90;;;;;;5072020;28;20102;-57
2022/09/18 07:54:30;;;;;;;8.32;2.10;;;11.20;99.90;;;;;;5072073;28;20109;-57
2022/09/18 07:56:55;;;;;;;9.05;1.88;;;11.60;99.90;;;;;;5071725;28;20500;-57
2022/09/18 07:59:22;;;;;;;6.60;1.80;;;;;;;;;;5072095;28;20040;-57
2022/09/18 08:01:54;;;;;;;9.52;1.70;;;11.50;99.90;;;;;;5070128;28;20119;-57
2022/09/18 08:04:21;;;;;;;4.25;1.50;;;11.50;99.90;;;;;;5071578;28;20366;-57
2022/09/18 08:06:54;;;;;;;12.63;1.90;;;11.50;99.90;;;;;;5068504;28;20051;-57
2022/09/18 08:09:20;;;;;;;8.70;1.55;;;11.50;99.90;;;;;;5071599;28;20051;-57
2022/09/18 08:11:47;;;;;;;10.60;1.80;;;11.50;99.90;;;;;;5071520;28;20541;-57
2022/09/18 08:14:15;;;;;;;8.40;1.70;;;;;;;;;;5071827;28;20064;-63
2022/09/18 08:16:45;;;;;;;6.90;1.90;;;11.50;99.90;;;;;;5071834;28;20068;-63
2022/09/18 08:19:11;;;;;;;6.97;1.92;;;;;;;;;;5073252;28;20075;-64
2022/09/18 08:21:38;;;;;;;5.05;1.50;;;11.60;99.90;;;;;;5075581;28;20037;-56
2022/09/18 08:24:05;;;;;;;9.13;1.70;;;;;;;;;;5073292;28;20098;-56
2022/09/18 08:26:30;;;;;;;9.23;1.70;;;11.60;99.90;;;;;;5076332;28;20032;-64
2022/09/18 08:28:59;;;;;;;7.63;1.70;;;11.40;99.90;;;;;;5076021;28;20040;-64
2022/09/18 08:31:26;;;;;;;7.18;1.67;;;;;;;;;;5072429;28;20044;-63
2022/09/18 08:33:52;;;;;;;10.23;1.73;;;11.50;99.90;;;;;;5075867;28;20037;-57
2022/09/18 08:36:20;;;;;;;6.22;1.55;;;11.50;99.90;;;;;;5076051;28;20047;-57
2022/09/18 08:38:46;;;;;;;5.55;1.40;;;11.10;99.90;;;;;;5075271;28;20057;-56
2022/09/18 08:41:12;;;;;;;4.78;1.35;;;11.50;99.90;;;;;;5075700;28;20403;-56
2022/09/18 08:43:49;;;;;;;5.68;1.42;;;11.30;99.90;;;;;;5075527;28;20048;-57
2022/09/18 08:46:51;;;;;;;11.02;1.73;;;11.40;99.90;;;;;;5073513;28;20033;-57
2022/09/18 08:49:51;;;;;;;5.35;1.67;;;11.60;99.90;;;;;;5074904;28;20083;-64
2022/09/18 08:52:19;;;;;;;6.00;1.50;;;11.40;99.90;;;;;;5074598;28;20476;-64
2022/09/18 08:54:50;;;;;;;9.13;1.90;;;11.40;99.90;;;;;;5064250;28;20037;-64
2022/09/18 08:57:29;;;;;;;9.77;1.40;;;11.50;99.90;;;;;;5076115;28;20044;-64
2022/09/18 09:00:00;;;;;;;6.10;1.60;;;11.30;99.90;;;;;;5075916;28;20091;-64
2022/09/18 09:02:49;;;;;;;4.78;1.40;;;11.60;99.90;;;;;;5076075;28;20051;-64
2022/09/18 09:05:18;;;;;;;5.53;1.60;;;11.50;99.90;;;;;;5074507;28;20037;-64
2022/09/18 09:07:59;;;;;;;4.05;1.30;;;11.60;99.90;;;;;;5075532;28;20037;-65
2022/09/18 09:10:42;;;;;;;8.57;1.63;;;11.60;99.90;;;;;;5075470;28;20060;-63
2022/09/18 09:13:34;;;;;;;6.53;1.60;;;11.80;99.90;;;;;;5075888;28;20119;-64
2022/09/18 09:16:16;;;;;;;6.40;1.30;;;11.70;99.90;;;;;;5067135;28;20056;-65
2022/09/18 09:18:42;;;;;;;6.65;1.40;;;11.60;99.90;;;;;;5075673;28;20032;-64
2022/09/18 09:21:36;;;;;;;6.50;1.67;;;12.20;99.90;;;;;;5075425;28;20531;-64
2022/09/18 09:24:28;;;;;;;6.75;1.77;;;11.70;99.90;;;;;;5075767;28;20033;-64
2022/09/18 09:26:56;;;;;;;5.57;1.50;;;11.70;99.90;;;;;;5075592;28;20048;-64
2022/09/18 09:29:34;;;;;;;8.80;1.70;;;11.70;99.90;;;;;;5074580;28;20040;-64
2022/09/18 09:32:17;;;;;;;4.68;1.75;;;11.70;99.90;;;;;;5075117;28;20040;-64
2022/09/18 09:34:55;;;;;;;7.15;1.63;;;11.90;99.90;;;;;;5074975;28;20078;-64
2022/09/18 09:37:28;;;;;;;5.30;1.40;;;11.70;99.90;;;;;;5074700;28;20041;-57
2022/09/18 09:39:59;;;;;;;10.23;1.52;;;11.80;99.90;;;;;;5074122;28;20507;-57
2022/09/18 09:42:36;;;;;;;7.90;1.73;;;11.80;99.90;;;;;;5074182;28;20056;-60
2022/09/18 09:45:28;;;;;;;6.90;1.40;;;11.70;99.90;;;;;;5074842;28;20129;-57
2022/09/18 09:48:11;;;;;;;5.15;1.42;;;12.30;99.90;;;;;;5050880;28;20166;-64
2022/09/18 09:50:52;;;;;;;6.68;1.70;;;11.80;99.90;;;;;;5074339;28;20381;-63
2022/09/18 09:53:21;;;;;;;5.55;1.55;;;11.70;99.90;;;;;;5072633;28;20040;-64
2022/09/18 09:56:16;;;;;;;7.25;1.67;;;11.70;99.90;;;;;;5074528;28;20040;-64
2022/09/18 09:59:00;;;;;;;10.00;1.95;;;11.70;99.90;;;;;;5073285;28;20051;-64
2022/09/18 10:02:05;;;;;;;4.53;1.52;;;11.70;99.90;;;;;;5072679;28;20050;-63
2022/09/18 10:04:49;;;;;;;6.07;1.40;;;11.50;99.90;;;;;;5070730;28;20040;-64
2022/09/18 10:07:34;;;;;;;5.60;1.50;;;11.70;99.90;;;;;;5073068;28;20049;-64
2022/09/18 10:10:09;;;;;;;6.45;1.45;;;11.70;99.90;;;;;;5073073;28;20043;-64
2022/09/18 10:12:56;;;;;;;5.63;1.38;;;11.90;99.90;;;;;;5074396;28;20186;-64
2022/09/18 10:15:37;;;;;;;5.75;1.58;;;12.10;99.90;;;;;;5073129;28;20480;-64
2022/09/18 10:18:18;;;;;;;10.15;1.70;;;11.70;99.90;;;;;;5073347;28;20044;-64
2022/09/18 10:20:47;;;;;;;9.32;2.03;;;11.70;99.90;;;;;;5073322;28;20047;-64
2022/09/18 10:23:37;;;;;;;4.40;1.48;;;11.70;99.90;;;;;;5073880;28;20036;-64
2022/09/18 10:26:04;;;;;;;7.70;1.60;;;11.70;99.90;;;;;;5073396;28;20040;-64
2022/09/18 10:28:30;;;;;;;6.60;1.63;;;11.90;99.90;;;;;;5073920;28;20089;-64
2022/09/18 10:31:09;;;;;;;9.63;2.05;;;11.80;99.90;;;;;;5073641;28;20037;-64
2022/09/18 10:33:44;;;;;;;4.55;1.40;;;11.80;99.90;;;;;;5074206;28;20447;-63
2022/09/18 10:36:13;;;;;;;7.38;1.52;;;11.90;99.90;;;;;;5074210;28;20025;-64
2022/09/18 10:38:41;;;;;;;7.55;2.03;;;11.80;99.90;;;;;;5073466;28;20036;-64
2022/09/18 10:41:39;;;;;;;7.20;2.45;;;11.90;99.90;;;;;;5071604;28;20076;-64
2022/09/18 10:44:24;;;;;;;6.95;1.63;;;11.70;99.90;;;;;;5056057;28;20087;-63
2022/09/18 10:47:08;;;;;;;6.13;1.60;;;10.90;99.90;;;;;;5072776;28;20442;-64
2022/09/18 10:50:01;;;;;;;6.25;1.30;;;12.00;99.90;;;;;;5072482;28;20044;-63
2022/09/18 10:52:38;;;;;;;7.35;1.42;;;11.60;99.90;;;;;;5072490;28;20041;-64
2022/09/18 10:55:07;;;;;;;3.80;1.40;;;11.90;99.90;;;;;;5061247;28;20094;-63
2022/09/18 10:57:47;;;;;;;6.78;1.80;;;11.90;99.90;;;;;;5072501;28;20043;-63
2022/09/18 11:00:23;;;;;;;10.68;1.70;;;12.00;99.90;;;;;;5072179;28;20121;-57
2022/09/18 11:03:19;;;;;;;4.20;1.33;;;12.00;99.90;;;;;;5072472;28;20129;-57
2022/09/18 11:05:57;;;;;;;8.65;1.65;;;12.00;99.90;;;;;;5072651;28;20496;-57
2022/09/18 11:08:29;;;;;;;4.78;1.52;;;12.10;99.90;;;;;;5071790;28;20739;-57
2022/09/18 11:11:04;;;;;;;8.18;1.67;;;12.20;99.90;;;;;;5072087;28;20135;-57
2022/09/18 11:13:38;;;;;;;4.22;1.40;;;12.10;99.90;;;;;;5069640;28;20503;-57
2022/09/18 11:16:04;;;;;;;5.22;1.83;;;12.30;99.90;;;;;;5071562;28;20044;-57
2022/09/18 11:18:31;;;;;;;8.85;1.80;;;12.20;99.90;;;;;;5072011;28;20450;-58
2022/09/18 11:21:01;;;;;;;10.13;2.05;;;12.30;99.90;;;;;;5072204;28;20487;-57
2022/09/18 11:23:30;;;;;;;10.43;1.80;;;12.50;99.90;;;;;;5073046;28;20186;-57
2022/09/18 11:26:09;;;;;;;8.10;1.70;;;12.40;99.90;;;;;;5073076;28;20040;-57
2022/09/18 11:28:35;;;;;;;7.10;1.90;;;;;;;;;;5073125;28;20037;-57
2022/09/18 11:31:14;;;;;;;5.95;1.75;;;12.70;99.90;;;;;;5073030;28;20044;-56
2022/09/18 11:33:47;;;;;;;7.93;1.92;;;12.30;99.90;;;;;;5073048;28;20048;-56
2022/09/18 11:36:21;;;;;;;7.88;1.75;;;12.70;99.90;;;;;;5073304;28;20047;-57
2022/09/18 11:38:48;;;;;;;9.52;1.83;;;12.50;99.90;;;;;;5072810;28;20040;-64
2022/09/18 11:41:25;;;;;;;8.63;2.05;;;12.50;99.90;;;;;;5072757;28;20136;-64
2022/09/18 11:44:16;;;;;;;6.10;1.70;;;12.60;99.90;;;;;;5072865;28;20037;-63
2022/09/18 11:46:59;;;;;;;8.07;2.15;;;12.60;99.90;;;;;;5072790;28;20033;-63
2022/09/18 11:49:30;;;;;;;6.15;1.75;;;12.70;99.90;;;;;;5071356;28;20052;-63
2022/09/18 11:52:00;;;;;;;7.93;1.70;;;12.60;99.90;;;;;;5072873;28;20040;-63
2022/09/18 11:54:47;;;;;;;7.15;1.90;;;12.70;99.90;;;;;;5075274;28;20041;-63
2022/09/18 11:57:38;;;;;;;12.25;2.10;;;12.60;99.90;;;;;;5075572;28;20059;-63
2022/09/18 12:00:16;;;;;;;7.38;1.83;;;11.80;99.90;;;;;;5075664;28;20068;-63
2022/09/18 12:02:59;;;;;;;9.05;2.03;;;12.80;99.90;;;;;;5074937;28;20033;-63
2022/09/18 12:05:51;;;;;;;7.65;1.88;;;13.00;99.90;;;;;;5076910;28;20040;-63
2022/09/18 12:08:59;;;;;;;8.13;1.90;;;12.90;99.90;;;;;;5076681;28;20072;-63
2022/09/18 12:11:31;;;;;;;8.90;2.20;;;13.30;99.90;;;;;;5076255;28;20475;-62
2022/09/18 12:14:18;;;;;;;10.07;2.00;;;13.20;99.90;;;;;;5077074;28;20048;-63
2022/09/18 12:17:06;;;;;;;7.15;2.35;;;13.20;99.90;;;;;;5076372;28;20484;-62
2022/09/18 12:19:37;;;;;;;9.52;2.05;;;13.10;99.90;;;;;;5076559;28;20045;-62
2022/09/18 12:22:23;;;;;;;11.20;2.10;;;12.60;99.90;;;;;;5076784;28;20054;-63
2022/09/18 12:24:50;;;;;;;10.10;2.38;;;13.40;99.90;;;;;;5076001;28;20519;-63
2022/09/18 12:27:40;;;;;;;14.63;2.60;;;13.70;99.90;;;;;;5076415;28;20036;-62
2022/09/18 12:30:16;;;;;;;10.43;2.53;;;13.00;99.90;;;;;;5076010;28;20044;-62
2022/09/18 12:32:54;;;;;;;6.85;2.05;;;13.00;99.90;;;;;;5076443;28;20119;-62
2022/09/18 12:35:22;;;;;;;12.53;2.00;;;13.50;99.90;;;;;;5076384;28;20076;-63
2022/09/18 12:38:23;;;;;;;10.20;2.00;;;13.50;99.90;;;;;;5074856;28;20569;-63
2022/09/18 12:41:00;;;;;;;9.32;2.03;;;13.40;99.90;;;;;;5068162;28;20504;-64
2022/09/18 12:43:48;;;;;;;10.52;2.10;;;13.50;99.90;;;;;;5076288;28;20551;-63
2022/09/18 12:46:50;;;;;;;8.75;1.92;;;13.70;99.90;;;;;;5053945;28;20080;-63
2022/09/18 12:49:24;;;;;;;6.97;1.88;;;13.60;99.90;;;;;;5054157;28;20037;-63
2022/09/18 12:52:33;;;;;;;9.75;1.85;;;13.70;99.90;;;;;;5053128;28;20539;-63
2022/09/18 12:55:33;;;;;;;8.93;2.17;;;13.70;99.90;;;;;;5053855;28;20071;-62
2022/09/18 12:57:59;;;;;;;10.32;2.05;;;13.80;99.90;;;;;;5053794;28;20127;-63
2022/09/18 13:00:27;;;;;;;10.05;2.20;;;13.50;99.90;;;;;;5053473;28;20156;-62
2022/09/18 13:03:01;;;;;;;11.20;2.22;;;13.80;99.90;;;;;;5053610;28;20068;-63
2022/09/18 13:05:51;;;;;;;9.40;2.17;;;13.60;99.90;;;;;;5053313;28;20037;-63
2022/09/18 13:08:26;;;;;;;9.43;2.00;;;13.70;99.90;;;;;;5053586;28;20033;-62
2022/09/18 13:10:58;;;;;;;8.43;2.05;;;13.50;99.90;;;;;;5036494;28;20060;-62
2022/09/18 13:13:30;;;;;;;11.93;2.10;;;13.70;99.90;;;;;;5053332;28;20060;-63
2022/09/18 13:16:18;;;;;;;11.30;2.25;;;14.00;99.90;;;;;;5053335;28;20044;-63
2022/09/18 13:18:56;;;;;;;12.20;2.38;;;13.70;99.90;;;;;;5053534;28;20041;-62
2022/09/18 13:21:28;;;;;;;11.02;2.42;;;13.80;99.90;;;;;;5053429;28;20040;-62